createdAt,value
2022-11-28T00:01:43.208Z,101144.78
2022-11-28T00:04:12.619Z,101139.56
2022-11-28T00:06:49.083Z,101136.03
2022-11-28T00:09:20.130Z,101126.44
2022-11-28T00:11:49.153Z,101122.06
2022-11-28T00:14:19.492Z,101118.56
2022-11-28T00:16:47.946Z,101108.09
2022-11-28T00:19:16.230Z,101110.72
2022-11-28T00:21:44.753Z,101105.53
2022-11-28T00:24:13.090Z,101100.31
2022-11-28T00:26:42.288Z,101095.91
2022-11-28T00:29:12.033Z,101084.59
2022-11-28T00:31:44.764Z,101082.84
2022-11-28T00:34:14.889Z,101077.69
2022-11-28T00:36:45.634Z,101076.84
2022-11-28T00:39:15.282Z,101072.50
2022-11-28T00:41:44.521Z,101061.16
2022-11-28T00:44:14.000Z,101065.50
2022-11-28T00:46:42.926Z,101065.50
2022-11-28T00:49:11.376Z,101062.03
2022-11-28T00:51:39.752Z,101063.84
2022-11-28T00:54:08.256Z,101060.31
2022-11-28T00:56:39.322Z,101056.00
2022-11-28T00:59:08.512Z,101054.25
2022-11-28T01:01:40.173Z,101056.88
2022-11-28T01:04:11.657Z,101062.16
2022-11-28T01:06:45.921Z,101049.91
2022-11-28T01:09:21.119Z,101045.56
2022-11-28T01:11:51.711Z,101055.19
2022-11-28T01:14:22.639Z,101045.59
2022-11-28T01:16:51.585Z,101037.75
2022-11-28T01:19:21.285Z,101036.94
2022-11-28T01:21:49.995Z,101037.88
2022-11-28T01:24:18.490Z,101039.59
2022-11-28T01:26:46.829Z,101022.19
2022-11-28T01:29:16.403Z,101013.47
2022-11-28T01:31:44.950Z,101016.94
2022-11-28T01:34:13.303Z,101008.25
2022-11-28T01:36:41.541Z,101012.59
2022-11-28T01:39:10.987Z,101013.47
2022-11-28T01:41:40.479Z,101004.81
2022-11-28T01:44:29.414Z,100997.84
2022-11-28T01:46:57.826Z,101004.84
2022-11-28T01:49:31.610Z,100997.84
2022-11-28T01:52:05.139Z,100977.81
2022-11-28T01:54:35.882Z,100969.09
2022-11-28T01:57:09.296Z,100961.22
2022-11-28T01:59:42.341Z,100967.34
2022-11-28T02:02:25.455Z,100969.09
2022-11-28T02:04:53.863Z,100966.44
2022-11-28T02:07:22.322Z,100952.53
2022-11-28T02:09:52.791Z,100960.38
2022-11-28T02:12:58.033Z,100961.31
2022-11-28T02:15:51.158Z,100954.28
2022-11-28T02:18:50.418Z,100952.59
2022-11-28T02:21:56.665Z,100946.50
2022-11-28T02:24:34.095Z,100944.78
2022-11-28T02:27:21.594Z,100948.28
2022-11-28T02:30:08.324Z,100947.41
2022-11-28T02:33:14.121Z,100947.41
2022-11-28T02:35:59.183Z,100943.06
2022-11-28T02:38:56.266Z,100946.53
2022-11-28T02:41:34.331Z,100955.25
2022-11-28T02:44:08.655Z,100949.16
2022-11-28T02:46:49.708Z,100948.28
2022-11-28T02:49:28.543Z,100930.81
2022-11-28T02:52:32.982Z,100941.22
2022-11-28T02:55:02.649Z,100941.22
2022-11-28T02:57:47.960Z,100945.56
2022-11-28T03:00:27.993Z,100944.69
2022-11-28T03:03:27.285Z,100935.97
2022-11-28T03:06:26.311Z,100932.50
2022-11-28T03:09:07.010Z,100927.28
2022-11-28T03:12:07.340Z,100932.47
2022-11-28T03:14:54.323Z,100930.72
2022-11-28T03:17:37.508Z,100927.22
2022-11-28T03:20:22.869Z,100921.13
2022-11-28T03:23:06.182Z,100920.31
2022-11-28T03:25:42.054Z,100908.94
2022-11-28T03:28:37.035Z,100912.47
2022-11-28T03:31:18.532Z,100901.16
2022-11-28T03:33:59.594Z,100898.53
2022-11-28T03:36:36.194Z,100884.59
2022-11-28T03:39:13.923Z,100891.56
2022-11-28T03:41:57.282Z,100893.34
2022-11-28T03:44:29.284Z,100888.16
2022-11-28T03:47:00.879Z,100888.16
2022-11-28T03:49:42.757Z,100881.19
2022-11-28T03:52:29.030Z,100888.22
2022-11-28T03:55:03.224Z,100892.56
2022-11-28T03:58:00.870Z,100884.72
2022-11-28T04:00:30.177Z,100884.78
2022-11-28T04:03:26.632Z,100887.44
2022-11-28T04:06:17.525Z,100890.91
2022-11-28T04:08:58.402Z,100881.38
2022-11-28T04:11:31.122Z,100884.88
2022-11-28T04:14:12.695Z,100891.00
2022-11-28T04:16:53.817Z,100879.69
2022-11-28T04:19:31.100Z,100878.91
2022-11-28T04:22:21.686Z,100873.69
2022-11-28T04:25:00.420Z,100878.13
2022-11-28T04:27:35.168Z,100878.16
2022-11-28T04:30:05.387Z,100875.56
2022-11-28T04:32:39.328Z,100872.94
2022-11-28T04:35:16.404Z,100866.94
2022-11-28T04:37:48.770Z,100870.47
2022-11-28T04:40:19.249Z,100872.22
2022-11-28T04:43:01.480Z,100869.63
2022-11-28T04:45:32.865Z,100872.25
2022-11-28T04:48:02.060Z,100870.50
2022-11-28T04:50:41.179Z,100881.00
2022-11-28T04:53:47.101Z,100871.47
2022-11-28T04:56:28.328Z,100876.69
2022-11-28T04:58:58.465Z,100868.03
2022-11-28T05:01:30.192Z,100870.63
2022-11-28T05:03:58.739Z,100875.91
2022-11-28T05:06:30.608Z,100876.78
2022-11-28T05:08:59.534Z,100882.06
2022-11-28T05:11:28.512Z,100873.34
2022-11-28T05:13:56.834Z,100871.63
2022-11-28T05:16:25.196Z,100871.69
2022-11-28T05:18:53.618Z,100873.47
2022-11-28T05:21:21.939Z,100877.00
2022-11-28T05:23:50.202Z,100877.91
2022-11-28T05:26:20.960Z,100879.69
2022-11-28T05:28:51.218Z,100878.00
2022-11-28T05:31:21.261Z,100881.47
2022-11-28T05:33:49.725Z,100882.34
2022-11-28T05:36:18.483Z,100881.56
2022-11-28T05:38:47.233Z,100886.81
2022-11-28T05:41:29.556Z,100888.56
2022-11-28T05:43:59.143Z,100882.50
2022-11-28T05:46:28.764Z,100881.63
2022-11-28T05:48:57.931Z,100888.66
2022-11-28T05:51:26.253Z,100887.78
2022-11-28T05:53:54.494Z,100885.22
2022-11-28T05:56:23.628Z,100889.59
2022-11-28T05:58:53.926Z,100888.75
2022-11-28T06:01:25.675Z,100887.00
2022-11-28T06:04:00.077Z,100879.19
2022-11-28T06:06:31.140Z,100884.44
2022-11-28T06:09:00.269Z,100894.94
2022-11-28T06:11:31.045Z,100888.88
2022-11-28T06:13:59.363Z,100894.97
2022-11-28T06:16:30.567Z,100897.59
2022-11-28T06:19:04.391Z,100902.84
2022-11-28T06:21:33.481Z,100902.84
2022-11-28T06:24:02.215Z,100901.16
2022-11-28T06:26:33.179Z,100902.91
2022-11-28T06:29:04.219Z,100906.44
2022-11-28T06:31:36.301Z,100908.19
2022-11-28T06:34:04.876Z,100901.22
2022-11-28T06:36:38.545Z,100905.66
2022-11-28T06:39:07.116Z,100907.38
2022-11-28T06:41:35.520Z,100913.53
2022-11-28T06:44:03.972Z,100918.81
2022-11-28T06:46:32.374Z,100912.75
2022-11-28T06:49:00.707Z,100923.25
2022-11-28T06:51:29.571Z,100918.03
2022-11-28T06:53:58.678Z,100925.03
2022-11-28T06:56:27.203Z,100919.84
2022-11-28T06:58:57.538Z,100931.22
2022-11-28T07:01:28.736Z,100933.91
2022-11-28T07:03:57.529Z,100926.03
2022-11-28T07:06:27.577Z,100932.19
2022-11-28T07:08:57.798Z,100920.06
2022-11-28T07:11:29.283Z,100930.53
2022-11-28T07:13:58.936Z,100925.28
2022-11-28T07:16:29.976Z,100926.19
2022-11-28T07:18:59.294Z,100934.06
2022-11-28T07:21:28.442Z,100941.06
2022-11-28T07:23:59.009Z,100936.75
2022-11-28T07:26:27.455Z,100946.38
2022-11-28T07:28:58.269Z,100938.53
2022-11-28T07:31:31.652Z,100937.69
2022-11-28T07:34:03.165Z,100941.19
2022-11-28T07:36:31.866Z,100940.34
2022-11-28T07:39:01.718Z,100952.56
2022-11-28T07:41:30.190Z,100954.38
2022-11-28T07:44:00.507Z,100953.50
2022-11-28T07:46:31.126Z,100940.41
2022-11-28T07:49:00.001Z,100953.53
2022-11-28T07:51:31.211Z,100944.81
2022-11-28T07:54:02.619Z,100947.41
2022-11-28T07:56:57.073Z,100956.19
2022-11-28T07:59:21.984Z,100943.09
2022-11-28T08:01:50.356Z,100950.13
2022-11-28T08:04:18.757Z,100946.63
2022-11-28T08:06:47.163Z,100943.16
2022-11-28T08:09:15.467Z,100941.44
2022-11-28T08:11:43.850Z,100945.78
2022-11-28T08:14:12.489Z,100936.19
2022-11-28T08:16:44.983Z,100945.84
2022-11-28T08:19:13.943Z,100944.97
2022-11-28T08:21:42.985Z,100944.97
2022-11-28T08:24:11.985Z,100945.84
2022-11-28T08:26:40.476Z,100946.75
2022-11-28T08:29:10.039Z,100948.50
2022-11-28T08:31:39.915Z,100952.91
2022-11-28T08:34:10.144Z,100958.13
2022-11-28T08:36:38.688Z,100960.75
2022-11-28T08:39:24.361Z,100957.25
2022-11-28T08:41:57.295Z,100963.41
2022-11-28T08:44:30.177Z,100968.66
2022-11-28T08:46:58.977Z,100966.03
2022-11-28T08:49:27.378Z,100980.00
2022-11-28T08:51:55.756Z,100973.00
2022-11-28T08:54:24.923Z,100971.28
2022-11-28T08:56:53.199Z,100972.19
2022-11-28T08:59:21.549Z,100975.66
2022-11-28T09:01:52.791Z,100969.56
2022-11-28T09:04:21.986Z,100962.63
2022-11-28T09:06:51.075Z,100968.75
2022-11-28T09:09:19.706Z,100974.03
2022-11-28T09:11:48.163Z,100971.41
2022-11-28T09:14:16.442Z,100981.03
2022-11-28T09:16:44.936Z,100974.94
2022-11-28T09:19:13.380Z,100979.31
2022-11-28T09:21:42.312Z,100983.72
2022-11-28T09:24:11.733Z,100983.75
2022-11-28T09:26:40.444Z,100987.25
2022-11-28T09:29:08.770Z,100983.75
2022-11-28T09:31:37.025Z,100985.53
2022-11-28T09:34:05.472Z,100982.06
2022-11-28T09:36:34.033Z,100990.81
2022-11-28T09:39:03.089Z,100990.81
2022-11-28T09:41:49.533Z,100997.81
2022-11-28T09:44:26.887Z,100997.81
2022-11-28T09:47:00.349Z,101002.22
2022-11-28T09:49:45.355Z,100997.84
2022-11-28T09:52:29.397Z,100998.72
2022-11-28T09:55:07.341Z,100997.03
2022-11-28T09:57:47.257Z,100997.03
2022-11-28T10:00:33.350Z,100997.09
2022-11-28T10:03:10.430Z,100994.47
2022-11-28T10:06:16.457Z,100989.28
2022-11-28T10:08:54.900Z,100994.50
2022-11-28T10:11:32.169Z,101001.50
2022-11-28T10:14:22.297Z,100997.19
2022-11-28T10:17:14.676Z,100994.59
2022-11-28T10:19:56.708Z,100990.22
2022-11-28T10:22:45.642Z,101003.34
2022-11-28T10:25:22.787Z,101003.34
2022-11-28T10:27:51.409Z,100997.25
2022-11-28T10:30:24.029Z,100999.91
2022-11-28T10:33:02.856Z,101006.94
2022-11-28T10:35:38.967Z,101008.63
2022-11-28T10:38:16.245Z,101009.53
2022-11-28T10:41:12.549Z,101006.06
2022-11-28T10:44:14.757Z,101006.94
2022-11-28T10:47:08.162Z,101003.44
2022-11-28T10:49:45.735Z,101006.94
2022-11-28T10:52:26.428Z,101013.94
2022-11-28T10:55:29.361Z,101014.81
2022-11-28T10:58:23.860Z,101013.94
2022-11-28T11:00:55.095Z,101019.22
2022-11-28T11:03:32.780Z,101018.31
2022-11-28T11:06:01.757Z,101011.38
2022-11-28T11:08:34.895Z,101008.75
2022-11-28T11:11:32.590Z,101012.25
2022-11-28T11:14:02.365Z,101011.41
2022-11-28T11:16:55.558Z,101011.41
2022-11-28T11:19:40.225Z,101014.94
2022-11-28T11:22:19.596Z,101017.53
2022-11-28T11:25:20.299Z,101021.94
2022-11-28T11:27:54.855Z,101021.97
2022-11-28T11:30:38.676Z,101012.34
2022-11-28T11:33:15.582Z,101016.75
2022-11-28T11:35:48.458Z,101016.75
2022-11-28T11:38:23.336Z,101022.03
2022-11-28T11:40:52.485Z,101022.03
2022-11-28T11:43:32.468Z,101015.06
2022-11-28T11:46:05.747Z,101016.78
2022-11-28T11:48:39.960Z,101013.34
2022-11-28T11:51:25.511Z,101018.63
2022-11-28T11:54:16.626Z,101019.50
2022-11-28T11:56:56.596Z,101014.28
2022-11-28T11:59:43.195Z,101014.28
2022-11-28T12:02:31.451Z,101016.91
2022-11-28T12:05:05.507Z,101011.66
2022-11-28T12:07:40.430Z,101011.66
2022-11-28T12:10:16.462Z,101016.91
2022-11-28T12:12:45.045Z,101018.66
2022-11-28T12:15:35.273Z,101018.69
2022-11-28T12:18:03.590Z,101023.09
2022-11-28T12:20:44.658Z,101023.97
2022-11-28T12:23:18.763Z,101024.84
2022-11-28T12:25:56.038Z,101021.38
2022-11-28T12:28:42.472Z,101029.28
2022-11-28T12:31:32.479Z,101028.41
2022-11-28T12:34:24.931Z,101037.16
2022-11-28T12:37:14.429Z,101028.44
2022-11-28T12:40:07.489Z,101030.22
2022-11-28T12:42:53.803Z,101032.84
2022-11-28T12:45:36.694Z,101030.22
2022-11-28T12:48:32.657Z,101036.34
2022-11-28T12:51:46.997Z,101037.22
2022-11-28T12:54:27.688Z,101028.53
2022-11-28T12:57:27.180Z,101028.53
2022-11-28T13:00:09.194Z,101033.75
2022-11-28T13:02:56.314Z,101025.91
2022-11-28T13:05:36.210Z,101037.28
2022-11-28T13:08:33.710Z,101030.31
2022-11-28T13:11:04.908Z,101031.22
2022-11-28T13:13:58.421Z,101036.47
2022-11-28T13:16:46.411Z,101036.47
2022-11-28T13:19:34.481Z,101039.94
2022-11-28T13:22:02.735Z,101042.56
2022-11-28T13:24:45.077Z,101044.28
2022-11-28T13:27:36.330Z,101043.47
2022-11-28T13:30:22.606Z,101051.34
2022-11-28T13:32:53.636Z,101045.22
2022-11-28T13:35:23.283Z,101052.25
2022-11-28T13:41:01.570Z,101049.63
2022-11-28T13:44:08.370Z,101051.34
2022-11-28T13:46:36.804Z,101055.75
2022-11-28T13:49:21.194Z,101047.06
2022-11-28T13:52:18.625Z,101058.41
2022-11-28T13:54:54.495Z,101055.78
2022-11-28T13:57:39.840Z,101064.53
2022-11-28T14:00:19.115Z,101056.66
2022-11-28T14:02:56.572Z,101072.41
2022-11-28T14:05:30.970Z,101061.91
2022-11-28T14:08:00.307Z,101063.69
2022-11-28T14:10:32.062Z,101062.78
2022-11-28T14:13:41.286Z,101062.78
2022-11-28T14:16:21.155Z,101061.94
2022-11-28T14:19:14.081Z,101066.31
2022-11-28T14:22:06.455Z,101068.06
2022-11-28T14:25:22.388Z,101076.81
2022-11-28T14:27:57.505Z,101077.69
2022-11-28T14:30:37.091Z,101078.53
2022-11-28T14:33:26.214Z,101091.66
2022-11-28T14:35:54.614Z,101087.28
2022-11-28T14:38:30.166Z,101088.13
2022-11-28T14:41:03.459Z,101088.13
2022-11-28T14:43:34.949Z,101100.38
2022-11-28T14:46:19.414Z,101107.38
2022-11-28T14:49:17.045Z,101100.34
2022-11-28T14:51:48.295Z,101111.69
2022-11-28T14:54:54.977Z,101111.66
2022-11-28T14:57:32.862Z,101112.53
2022-11-28T15:00:08.427Z,101112.53
2022-11-28T15:02:46.445Z,101122.16
2022-11-28T15:05:29.050Z,101122.16
2022-11-28T15:08:19.637Z,101116.00
2022-11-28T15:10:58.059Z,101117.69
2022-11-28T15:14:04.411Z,101115.09
2022-11-28T15:16:39.497Z,101122.06
2022-11-28T15:19:24.362Z,101129.09
2022-11-28T15:21:54.413Z,101129.94
2022-11-28T15:24:23.985Z,101138.69
2022-11-28T15:26:57.591Z,101133.44
2022-11-28T15:29:28.307Z,101137.81
2022-11-28T15:31:58.015Z,101140.44
2022-11-28T15:34:35.606Z,101138.63
2022-11-28T15:37:10.181Z,101146.50
2022-11-28T15:39:41.291Z,101146.50
2022-11-28T15:42:31.626Z,101145.63
2022-11-28T15:45:37.872Z,101143.88
2022-11-28T15:48:28.088Z,101146.47
2022-11-28T15:50:56.912Z,101150.84
2022-11-28T15:53:25.494Z,101147.34
2022-11-28T15:56:15.037Z,101148.22
2022-11-28T15:58:45.089Z,101147.34
2022-11-28T16:01:27.097Z,101149.97
2022-11-28T16:04:26.611Z,101151.69
2022-11-28T16:06:57.635Z,101148.22
2022-11-28T16:09:35.092Z,101150.81
2022-11-28T16:12:05.331Z,101156.06
2022-11-28T16:14:38.711Z,101156.06
2022-11-28T16:17:26.115Z,101152.59
2022-11-28T16:19:56.059Z,101160.44
2022-11-28T16:22:33.240Z,101155.19
2022-11-28T16:25:14.595Z,101158.69
2022-11-28T16:27:45.683Z,101161.34
2022-11-28T16:30:23.542Z,101158.69
2022-11-28T16:32:55.526Z,101152.59
2022-11-28T16:35:41.641Z,101166.59
2022-11-28T16:38:24.005Z,101167.47
2022-11-28T16:40:59.783Z,101171.81
2022-11-28T16:43:39.498Z,101164.81
2022-11-28T16:46:19.159Z,101167.47
2022-11-28T16:48:52.643Z,101164.84
2022-11-28T16:51:20.961Z,101174.47
2022-11-28T16:54:00.661Z,101176.25
2022-11-28T16:56:29.310Z,101184.13
2022-11-28T16:59:11.360Z,101190.25
2022-11-28T17:01:42.090Z,101194.59
2022-11-28T17:04:21.494Z,101192.03
2022-11-28T17:06:51.521Z,101191.06
2022-11-28T17:09:20.352Z,101194.59
2022-11-28T17:11:59.492Z,101199.84
2022-11-28T17:14:27.735Z,101199.84
2022-11-28T17:16:56.325Z,101206.84
2022-11-28T17:19:24.771Z,101197.22
2022-11-28T17:21:56.748Z,101204.22
2022-11-28T17:24:27.866Z,101210.38
2022-11-28T17:26:56.193Z,101213.00
2022-11-28T17:29:28.602Z,101213.88
2022-11-28T17:31:58.909Z,101220.88
2022-11-28T17:34:31.278Z,101220.88
2022-11-28T17:37:01.705Z,101214.78
2022-11-28T17:39:30.374Z,101220.03
2022-11-28T17:41:59.159Z,101212.16
2022-11-28T17:44:33.092Z,101227.03
2022-11-28T17:47:02.952Z,101223.53
2022-11-28T17:49:31.369Z,101216.53
2022-11-28T17:52:00.196Z,101223.53
2022-11-28T17:54:28.650Z,101221.78
2022-11-28T17:56:57.653Z,101223.56
2022-11-28T17:59:27.055Z,101226.19
2022-11-28T18:01:55.646Z,101223.63
2022-11-28T18:04:26.276Z,101223.56
2022-11-28T18:06:55.739Z,101231.44
2022-11-28T18:09:24.193Z,101233.22
2022-11-28T18:11:52.878Z,101227.06
2022-11-28T18:14:21.260Z,101223.56
2022-11-28T18:16:49.845Z,101226.19
2022-11-28T18:19:18.300Z,101230.59
2022-11-28T18:21:46.739Z,101227.97
2022-11-28T18:24:15.818Z,101227.06
2022-11-28T18:26:44.177Z,101227.97
2022-11-28T18:29:13.040Z,101232.34
2022-11-28T18:31:42.565Z,101231.47
2022-11-28T18:34:12.014Z,101235.84
2022-11-28T18:36:41.222Z,101234.97
2022-11-28T18:39:15.526Z,101235.84
2022-11-28T18:41:44.194Z,101244.63
2022-11-28T18:44:12.628Z,101237.66
2022-11-28T18:46:41.347Z,101242.88
2022-11-28T18:49:12.435Z,101243.75
2022-11-28T18:51:40.863Z,101239.38
2022-11-28T18:54:10.382Z,101247.25
2022-11-28T18:56:39.254Z,101260.38
2022-11-28T18:59:07.659Z,101256.84
2022-11-28T19:01:41.325Z,101255.97
2022-11-28T19:04:12.275Z,101260.38
2022-11-28T19:06:42.938Z,101266.50
2022-11-28T19:09:12.884Z,101264.69
2022-11-28T19:11:46.138Z,101266.44
2022-11-28T19:14:23.041Z,101268.22
2022-11-28T19:16:53.919Z,101268.22
2022-11-28T19:19:23.985Z,101267.31
2022-11-28T19:21:52.829Z,101276.09
2022-11-28T19:24:21.462Z,101280.47
2022-11-28T19:26:51.408Z,101271.72
2022-11-28T19:29:19.877Z,101280.47
2022-11-28T19:31:49.636Z,101281.34
2022-11-28T19:34:18.742Z,101285.72
2022-11-28T19:36:50.125Z,101283.97
2022-11-28T19:39:24.652Z,101282.25
2022-11-28T19:41:53.863Z,101292.75
2022-11-28T19:44:24.665Z,101286.59
2022-11-28T19:46:54.622Z,101291.00
2022-11-28T19:49:24.455Z,101292.75
2022-11-28T19:51:54.586Z,101286.63
2022-11-28T19:54:24.736Z,101298.00
2022-11-28T19:56:56.134Z,101296.25
2022-11-28T19:59:25.407Z,101290.97
2022-11-28T20:01:54.002Z,101288.38
2022-11-28T20:04:24.582Z,101288.38
2022-11-28T20:06:56.295Z,101290.13
2022-11-28T20:09:24.886Z,101296.28
2022-11-28T20:11:53.538Z,101289.25
2022-11-28T20:14:25.172Z,101295.38
2022-11-28T20:16:56.868Z,101299.75
2022-11-28T20:19:25.537Z,101297.16
2022-11-28T20:21:58.650Z,101305.00
2022-11-28T20:24:27.511Z,101309.41
2022-11-28T20:26:56.985Z,101315.53
2022-11-28T20:29:28.016Z,101317.31
2022-11-28T20:31:57.529Z,101318.16
2022-11-28T20:34:27.773Z,101314.69
2022-11-28T20:36:59.420Z,101315.56
2022-11-28T20:39:27.941Z,101316.44
2022-11-28T20:41:56.466Z,101319.94
2022-11-28T20:44:27.286Z,101322.56
2022-11-28T20:46:55.647Z,101318.22
2022-11-28T20:49:23.912Z,101324.31
2022-11-28T20:51:55.131Z,101326.97
2022-11-28T20:54:25.595Z,101337.47
2022-11-28T20:59:45.528Z,101343.59
2022-11-28T21:02:14.292Z,101347.09
2022-11-28T21:04:42.673Z,101350.66
2022-11-28T21:07:11.003Z,101347.13
2022-11-28T21:09:39.395Z,101346.31
2022-11-28T21:12:08.050Z,101353.31
2022-11-28T21:14:36.397Z,101352.47
2022-11-28T21:17:04.860Z,101348.97
2022-11-28T21:19:33.356Z,101345.47
2022-11-28T21:22:01.766Z,101346.41
2022-11-28T21:24:30.141Z,101344.69
2022-11-28T21:26:58.647Z,101344.69
2022-11-28T21:29:26.971Z,101345.59
2022-11-28T21:31:55.464Z,101342.06
2022-11-28T21:34:24.005Z,101346.47
2022-11-28T21:36:54.112Z,101343.84
2022-11-28T21:39:23.090Z,101350.84
2022-11-28T21:41:51.412Z,101349.97
2022-11-28T21:44:20.598Z,101353.47
2022-11-28T21:46:50.326Z,101352.56
2022-11-28T21:49:18.989Z,101358.69
2022-11-28T21:51:47.497Z,101357.75
2022-11-28T21:54:15.789Z,101358.63
2022-11-28T21:56:46.881Z,101367.38
2022-11-28T21:59:15.380Z,101367.34
2022-11-28T22:01:44.423Z,101368.25
2022-11-28T22:04:13.300Z,101365.63
2022-11-28T22:06:41.711Z,101367.38
2022-11-28T22:09:10.641Z,101365.66
2022-11-28T22:11:40.480Z,101364.78
2022-11-28T22:14:11.502Z,101367.41
2022-11-28T22:16:39.885Z,101368.28
2022-11-28T22:19:09.299Z,101367.47
2022-11-28T22:21:56.038Z,101370.91
2022-11-28T22:24:25.058Z,101375.28
2022-11-28T22:26:55.392Z,101373.53
2022-11-28T22:29:25.240Z,101371.84
2022-11-28T22:31:55.052Z,101374.44
2022-11-28T22:34:24.746Z,101364.84
2022-11-28T22:36:53.134Z,101374.44
2022-11-28T22:39:22.348Z,101373.59
2022-11-28T22:41:50.758Z,101370.91
2022-11-28T22:44:21.438Z,101377.91
2022-11-28T22:46:50.145Z,101372.66
2022-11-28T22:49:19.533Z,101373.53
2022-11-28T22:51:48.760Z,101363.03
2022-11-28T22:54:17.432Z,101366.50
2022-11-28T22:56:45.790Z,101375.19
2022-11-28T22:59:19.510Z,101368.25
2022-11-28T23:01:49.443Z,101368.25
2022-11-28T23:04:18.183Z,101372.59
2022-11-28T23:06:47.376Z,101381.31
2022-11-28T23:09:15.797Z,101372.56
2022-11-28T23:11:46.065Z,101386.53
2022-11-28T23:14:18.096Z,101375.09
2022-11-28T23:16:47.615Z,101374.22
2022-11-28T23:19:21.658Z,101374.19
2022-11-28T23:21:50.670Z,101375.94
2022-11-28T23:24:22.373Z,101388.13
2022-11-28T23:26:52.459Z,101391.59
2022-11-28T23:29:21.020Z,101394.16
2022-11-28T23:31:50.599Z,101398.50
2022-11-28T23:34:19.077Z,101401.09
2022-11-28T23:36:48.933Z,101398.44
2022-11-28T23:39:20.512Z,101394.94
2022-11-28T23:41:50.068Z,101394.91
2022-11-28T23:44:19.909Z,101398.44
2022-11-28T23:46:48.504Z,101405.34
2022-11-28T23:49:17.446Z,101401.84
2022-11-28T23:51:45.850Z,101404.47
2022-11-28T23:54:14.685Z,101403.59
2022-11-28T23:56:43.546Z,101404.41
2022-11-28T23:59:12.693Z,101401.81
